sensor_id;sensor_type;location;lat;lon;timestamp;temperature;humidity
14409;DHT22;7289;50.706;4.992;2023-04-07T00:01:57;9.40;99.90
14409;DHT22;7289;50.706;4.992;2023-04-07T00:04:25;9.40;99.90
14409;DHT22;7289;50.706;4.992;2023-04-07T00:06:54;9.50;99.90
14409;DHT22;7289;50.706;4.992;2023-04-07T00:09:22;9.50;99.90
14409;DHT22;7289;50.706;4.992;2023-04-07T00:11:51;9.60;99.90
14409;DHT22;7289;50.706;4.992;2023-04-07T00:14:19;9.60;99.90
14409;DHT22;7289;50.706;4.992;2023-04-07T00:16:49;9.60;99.90
14409;DHT22;7289;50.706;4.992;2023-04-07T00:19:17;9.70;99.90
14409;DHT22;7289;50.706;4.992;2023-04-07T00:21:45;9.70;99.90
14409;DHT22;7289;50.706;4.992;2023-04-07T00:24:13;9.70;99.90
14409;DHT22;7289;50.706;4.992;2023-04-07T00:26:49;9.70;99.90
14409;DHT22;7289;50.706;4.992;2023-04-07T00:29:18;9.80;99.90
14409;DHT22;7289;50.706;4.992;2023-04-07T00:31:46;9.80;99.90
14409;DHT22;7289;50.706;4.992;2023-04-07T00:34:15;9.80;99.90
14409;DHT22;7289;50.706;4.992;2023-04-07T00:36:44;9.70;99.90
14409;DHT22;7289;50.706;4.992;2023-04-07T00:39:18;9.70;99.90
14409;DHT22;7289;50.706;4.992;2023-04-07T00:41:47;9.70;99.90
14409;DHT22;7289;50.706;4.992;2023-04-07T00:44:15;9.70;99.90
14409;DHT22;7289;50.706;4.992;2023-04-07T00:46:45;9.70;99.90
14409;DHT22;7289;50.706;4.992;2023-04-07T00:49:16;9.70;99.90
14409;DHT22;7289;50.706;4.992;2023-04-07T00:51:45;9.70;99.90
14409;DHT22;7289;50.706;4.992;2023-04-07T00:54:14;9.70;99.90
14409;DHT22;7289;50.706;4.992;2023-04-07T00:56:42;9.70;99.90
14409;DHT22;7289;50.706;4.992;2023-04-07T00:59:11;9.70;99.90
14409;DHT22;7289;50.706;4.992;2023-04-07T01:01:43;9.70;99.90
14409;DHT22;7289;50.706;4.992;2023-04-07T01:04:21;9.70;99.90
14409;DHT22;7289;50.706;4.992;2023-04-07T01:06:53;9.60;99.90
14409;DHT22;7289;50.706;4.992;2023-04-07T01:09:36;9.60;99.90
14409;DHT22;7289;50.706;4.992;2023-04-07T01:12:09;9.60;99.90
14409;DHT22;7289;50.706;4.992;2023-04-07T01:14:44;9.60;99.90
14409;DHT22;7289;50.706;4.992;2023-04-07T01:17:33;9.60;99.90
14409;DHT22;7289;50.706;4.992;2023-04-07T01:20:06;9.50;99.90
14409;DHT22;7289;50.706;4.992;2023-04-07T01:22:40;9.50;99.90
14409;DHT22;7289;50.706;4.992;2023-04-07T01:25:37;9.40;99.90
14409;DHT22;7289;50.706;4.992;2023-04-07T01:28:21;9.40;99.90
14409;DHT22;7289;50.706;4.992;2023-04-07T01:30:56;9.40;99.90
14409;DHT22;7289;50.706;4.992;2023-04-07T01:33:26;9.40;99.90
14409;DHT22;7289;50.706;4.992;2023-04-07T01:35:58;9.40;99.90
14409;DHT22;7289;50.706;4.992;2023-04-07T01:38:28;9.40;99.90
14409;DHT22;7289;50.706;4.992;2023-04-07T01:40:57;9.40;99.90
14409;DHT22;7289;50.706;4.992;2023-04-07T01:43:26;9.40;99.90
14409;DHT22;7289;50.706;4.992;2023-04-07T01:45:56;9.40;99.90
14409;DHT22;7289;50.706;4.992;2023-04-07T01:48:25;9.40;99.90
14409;DHT22;7289;50.706;4.992;2023-04-07T01:50:54;9.40;99.90
14409;DHT22;7289;50.706;4.992;2023-04-07T01:53:23;9.40;99.90
14409;DHT22;7289;50.706;4.992;2023-04-07T01:55:53;9.50;99.90
14409;DHT22;7289;50.706;4.992;2023-04-07T01:58:22;9.50;99.90
14409;DHT22;7289;50.706;4.992;2023-04-07T02:00:51;9.50;99.90
14409;DHT22;7289;50.706;4.992;2023-04-07T02:03:28;9.50;99.90
14409;DHT22;7289;50.706;4.992;2023-04-07T02:06:05;9.50;99.90
14409;DHT22;7289;50.706;4.992;2023-04-07T02:08:35;9.40;99.90
14409;DHT22;7289;50.706;4.992;2023-04-07T02:11:05;9.40;99.90
14409;DHT22;7289;50.706;4.992;2023-04-07T02:13:36;9.40;99.90
14409;DHT22;7289;50.706;4.992;2023-04-07T02:16:08;9.30;99.90
14409;DHT22;7289;50.706;4.992;2023-04-07T02:18:39;9.30;99.90
14409;DHT22;7289;50.706;4.992;2023-04-07T02:21:08;9.30;99.90
14409;DHT22;7289;50.706;4.992;2023-04-07T02:23:37;9.30;99.90
14409;DHT22;7289;50.706;4.992;2023-04-07T02:26:05;9.20;99.90
14409;DHT22;7289;50.706;4.992;2023-04-07T02:28:34;9.20;99.90
14409;DHT22;7289;50.706;4.992;2023-04-07T02:31:02;9.20;99.90
14409;DHT22;7289;50.706;4.992;2023-04-07T02:33:31;9.30;99.90
14409;DHT22;7289;50.706;4.992;2023-04-07T02:36:01;9.30;99.90
14409;DHT22;7289;50.706;4.992;2023-04-07T02:38:29;9.30;99.90
14409;DHT22;7289;50.706;4.992;2023-04-07T02:40:57;9.40;99.90
14409;DHT22;7289;50.706;4.992;2023-04-07T02:43:28;9.40;99.90
14409;DHT22;7289;50.706;4.992;2023-04-07T02:45:57;9.40;99.90
14409;DHT22;7289;50.706;4.992;2023-04-07T02:48:25;9.40;99.90
14409;DHT22;7289;50.706;4.992;2023-04-07T02:50:53;9.40;99.90
14409;DHT22;7289;50.706;4.992;2023-04-07T02:53:23;9.40;99.90
14409;DHT22;7289;50.706;4.992;2023-04-07T02:55:51;9.40;99.90
14409;DHT22;7289;50.706;4.992;2023-04-07T02:58:19;9.40;99.90
14409;DHT22;7289;50.706;4.992;2023-04-07T03:00:48;9.40;99.90
14409;DHT22;7289;50.706;4.992;2023-04-07T03:03:20;9.40;99.90
14409;DHT22;7289;50.706;4.992;2023-04-07T03:06:03;9.30;99.90
14409;DHT22;7289;50.706;4.992;2023-04-07T03:08:40;9.20;99.90
14409;DHT22;7289;50.706;4.992;2023-04-07T03:11:08;9.20;99.90
14409;DHT22;7289;50.706;4.992;2023-04-07T03:13:37;9.10;99.90
14409;DHT22;7289;50.706;4.992;2023-04-07T03:16:05;9.10;99.90
14409;DHT22;7289;50.706;4.992;2023-04-07T03:18:43;9.10;99.90
14409;DHT22;7289;50.706;4.992;2023-04-07T03:21:11;9.10;99.90
14409;DHT22;7289;50.706;4.992;2023-04-07T03:23:42;9.10;99.90
14409;DHT22;7289;50.706;4.992;2023-04-07T03:26:10;9.00;99.90
14409;DHT22;7289;50.706;4.992;2023-04-07T03:28:38;9.10;99.90
14409;DHT22;7289;50.706;4.992;2023-04-07T03:31:06;9.10;99.90
14409;DHT22;7289;50.706;4.992;2023-04-07T03:33:35;9.20;99.90
14409;DHT22;7289;50.706;4.992;2023-04-07T03:36:03;9.10;99.90
14409;DHT22;7289;50.706;4.992;2023-04-07T03:38:32;9.10;99.90
14409;DHT22;7289;50.706;4.992;2023-04-07T03:41:04;9.10;99.90
14409;DHT22;7289;50.706;4.992;2023-04-07T03:43:33;9.10;99.90
14409;DHT22;7289;50.706;4.992;2023-04-07T03:46:01;9.00;99.90
14409;DHT22;7289;50.706;4.992;2023-04-07T03:48:30;9.00;99.90
14409;DHT22;7289;50.706;4.992;2023-04-07T03:51:05;9.00;99.90
14409;DHT22;7289;50.706;4.992;2023-04-07T03:53:34;9.00;99.90
14409;DHT22;7289;50.706;4.992;2023-04-07T03:56:16;9.00;99.90
14409;DHT22;7289;50.706;4.992;2023-04-07T03:58:48;9.00;99.90
14409;DHT22;7289;50.706;4.992;2023-04-07T04:01:24;9.00;99.90
14409;DHT22;7289;50.706;4.992;2023-04-07T04:03:54;9.00;99.90
14409;DHT22;7289;50.706;4.992;2023-04-07T04:06:26;9.00;99.90
14409;DHT22;7289;50.706;4.992;2023-04-07T04:09:02;9.00;99.90
14409;DHT22;7289;50.706;4.992;2023-04-07T04:11:35;8.90;99.90
14409;DHT22;7289;50.706;4.992;2023-04-07T04:14:04;8.90;99.90
14409;DHT22;7289;50.706;4.992;2023-04-07T04:16:35;8.70;99.90
14409;DHT22;7289;50.706;4.992;2023-04-07T04:19:10;8.60;99.90
14409;DHT22;7289;50.706;4.992;2023-04-07T04:21:38;8.50;99.90
14409;DHT22;7289;50.706;4.992;2023-04-07T04:24:07;8.50;99.90
14409;DHT22;7289;50.706;4.992;2023-04-07T04:26:37;8.50;99.90
14409;DHT22;7289;50.706;4.992;2023-04-07T04:29:10;8.50;99.90
14409;DHT22;7289;50.706;4.992;2023-04-07T04:31:41;8.40;99.90
14409;DHT22;7289;50.706;4.992;2023-04-07T04:34:10;8.40;99.90
14409;DHT22;7289;50.706;4.992;2023-04-07T04:36:40;8.40;99.90
14409;DHT22;7289;50.706;4.992;2023-04-07T04:39:08;8.40;99.90
14409;DHT22;7289;50.706;4.992;2023-04-07T04:41:39;8.30;99.90
14409;DHT22;7289;50.706;4.992;2023-04-07T04:44:09;8.30;99.90
14409;DHT22;7289;50.706;4.992;2023-04-07T04:46:40;8.30;99.90
14409;DHT22;7289;50.706;4.992;2023-04-07T04:49:09;8.20;99.90
14409;DHT22;7289;50.706;4.992;2023-04-07T04:51:39;8.20;99.90
14409;DHT22;7289;50.706;4.992;2023-04-07T04:54:14;8.20;99.90
14409;DHT22;7289;50.706;4.992;2023-04-07T04:56:45;8.20;99.90
14409;DHT22;7289;50.706;4.992;2023-04-07T04:59:15;8.30;99.90
14409;DHT22;7289;50.706;4.992;2023-04-07T05:01:59;8.20;99.90
14409;DHT22;7289;50.706;4.992;2023-04-07T05:04:27;8.20;99.90
14409;DHT22;7289;50.706;4.992;2023-04-07T05:07:08;8.20;99.90
14409;DHT22;7289;50.706;4.992;2023-04-07T05:09:36;8.20;99.90
14409;DHT22;7289;50.706;4.992;2023-04-07T05:12:06;8.30;99.90
14409;DHT22;7289;50.706;4.992;2023-04-07T05:14:40;8.30;99.90
14409;DHT22;7289;50.706;4.992;2023-04-07T05:17:09;8.30;99.90
14409;DHT22;7289;50.706;4.992;2023-04-07T05:19:37;8.30;99.90
14409;DHT22;7289;50.706;4.992;2023-04-07T05:22:13;8.30;99.90
14409;DHT22;7289;50.706;4.992;2023-04-07T05:24:45;8.30;99.90
14409;DHT22;7289;50.706;4.992;2023-04-07T05:27:15;8.40;99.90
14409;DHT22;7289;50.706;4.992;2023-04-07T05:29:47;8.40;99.90
14409;DHT22;7289;50.706;4.992;2023-04-07T05:32:26;8.40;99.90
14409;DHT22;7289;50.706;4.992;2023-04-07T05:34:56;8.40;99.90
14409;DHT22;7289;50.706;4.992;2023-04-07T05:37:29;8.50;99.90
14409;DHT22;7289;50.706;4.992;2023-04-07T05:40:01;8.60;99.90
14409;DHT22;7289;50.706;4.992;2023-04-07T05:42:31;8.70;99.90
14409;DHT22;7289;50.706;4.992;2023-04-07T05:45:01;8.80;99.90
14409;DHT22;7289;50.706;4.992;2023-04-07T05:47:30;9.00;99.90
14409;DHT22;7289;50.706;4.992;2023-04-07T05:49:59;9.10;99.90
14409;DHT22;7289;50.706;4.992;2023-04-07T05:52:29;9.10;99.90
14409;DHT22;7289;50.706;4.992;2023-04-07T05:55:08;9.10;99.90
14409;DHT22;7289;50.706;4.992;2023-04-07T05:57:38;9.30;99.90
14409;DHT22;7289;50.706;4.992;2023-04-07T06:00:07;9.50;99.90
14409;DHT22;7289;50.706;4.992;2023-04-07T06:02:40;9.50;99.90
14409;DHT22;7289;50.706;4.992;2023-04-07T06:05:15;9.70;99.90
14409;DHT22;7289;50.706;4.992;2023-04-07T06:07:45;9.90;99.90
14409;DHT22;7289;50.706;4.992;2023-04-07T06:10:14;10.00;99.90
14409;DHT22;7289;50.706;4.992;2023-04-07T06:12:44;10.10;99.90
14409;DHT22;7289;50.706;4.992;2023-04-07T06:15:13;10.00;99.90
14409;DHT22;7289;50.706;4.992;2023-04-07T06:17:42;10.30;99.90
14409;DHT22;7289;50.706;4.992;2023-04-07T06:20:12;10.40;99.90
14409;DHT22;7289;50.706;4.992;2023-04-07T06:22:40;10.50;99.90
14409;DHT22;7289;50.706;4.992;2023-04-07T06:25:08;10.40;99.90
14409;DHT22;7289;50.706;4.992;2023-04-07T06:27:37;10.40;99.90
14409;DHT22;7289;50.706;4.992;2023-04-07T06:30:08;10.20;99.90
14409;DHT22;7289;50.706;4.992;2023-04-07T06:32:36;10.10;99.90
14409;DHT22;7289;50.706;4.992;2023-04-07T06:35:05;10.10;99.90
14409;DHT22;7289;50.706;4.992;2023-04-07T06:37:34;9.80;99.90
14409;DHT22;7289;50.706;4.992;2023-04-07T06:40:02;9.70;99.90
14409;DHT22;7289;50.706;4.992;2023-04-07T06:42:31;9.70;99.90
14409;DHT22;7289;50.706;4.992;2023-04-07T06:45:24;9.70;99.90
14409;DHT22;7289;50.706;4.992;2023-04-07T06:47:52;9.80;99.90
14409;DHT22;7289;50.706;4.992;2023-04-07T06:50:21;10.10;99.90
14409;DHT22;7289;50.706;4.992;2023-04-07T06:52:49;10.10;99.90
14409;DHT22;7289;50.706;4.992;2023-04-07T06:55:17;9.90;99.90
14409;DHT22;7289;50.706;4.992;2023-04-07T06:57:45;9.80;99.90
14409;DHT22;7289;50.706;4.992;2023-04-07T07:00:14;9.90;99.90
14409;DHT22;7289;50.706;4.992;2023-04-07T07:02:44;10.10;99.90
14409;DHT22;7289;50.706;4.992;2023-04-07T07:05:12;10.30;99.90
14409;DHT22;7289;50.706;4.992;2023-04-07T07:07:41;10.20;99.90
14409;DHT22;7289;50.706;4.992;2023-04-07T07:10:09;10.10;99.90
14409;DHT22;7289;50.706;4.992;2023-04-07T07:12:38;10.30;99.90
14409;DHT22;7289;50.706;4.992;2023-04-07T07:15:07;10.60;99.90
14409;DHT22;7289;50.706;4.992;2023-04-07T07:17:35;10.90;99.90
14409;DHT22;7289;50.706;4.992;2023-04-07T07:20:06;11.10;99.90
14409;DHT22;7289;50.706;4.992;2023-04-07T07:22:35;11.20;99.90
14409;DHT22;7289;50.706;4.992;2023-04-07T07:25:04;11.40;99.90
14409;DHT22;7289;50.706;4.992;2023-04-07T07:27:32;11.20;99.90
14409;DHT22;7289;50.706;4.992;2023-04-07T07:30:00;10.90;99.90
14409;DHT22;7289;50.706;4.992;2023-04-07T07:32:29;10.60;99.90
14409;DHT22;7289;50.706;4.992;2023-04-07T07:34:57;10.70;99.90
14409;DHT22;7289;50.706;4.992;2023-04-07T07:37:27;10.80;99.90
14409;DHT22;7289;50.706;4.992;2023-04-07T07:39:55;10.80;99.90
14409;DHT22;7289;50.706;4.992;2023-04-07T07:42:24;10.80;99.90
14409;DHT22;7289;50.706;4.992;2023-04-07T07:44:52;10.80;99.90
14409;DHT22;7289;50.706;4.992;2023-04-07T07:47:21;10.80;99.90
14409;DHT22;7289;50.706;4.992;2023-04-07T07:49:49;11.00;99.90
14409;DHT22;7289;50.706;4.992;2023-04-07T07:52:17;11.10;99.90
14409;DHT22;7289;50.706;4.992;2023-04-07T07:54:49;11.20;99.90
14409;DHT22;7289;50.706;4.992;2023-04-07T07:57:17;11.00;99.90
14409;DHT22;7289;50.706;4.992;2023-04-07T07:59:45;10.70;99.90
14409;DHT22;7289;50.706;4.992;2023-04-07T08:02:14;10.60;99.90
14409;DHT22;7289;50.706;4.992;2023-04-07T08:04:42;10.70;99.90
14409;DHT22;7289;50.706;4.992;2023-04-07T08:07:10;10.90;99.90
14409;DHT22;7289;50.706;4.992;2023-04-07T08:09:39;11.10;99.90
14409;DHT22;7289;50.706;4.992;2023-04-07T08:12:08;11.20;99.90
14409;DHT22;7289;50.706;4.992;2023-04-07T08:14:37;11.50;99.90
14409;DHT22;7289;50.706;4.992;2023-04-07T08:17:05;11.70;99.90
14409;DHT22;7289;50.706;4.992;2023-04-07T08:19:34;11.80;99.90
14409;DHT22;7289;50.706;4.992;2023-04-07T08:22:02;12.20;99.90
14409;DHT22;7289;50.706;4.992;2023-04-07T08:24:30;12.40;99.90
14409;DHT22;7289;50.706;4.992;2023-04-07T08:26:59;12.50;99.90
14409;DHT22;7289;50.706;4.992;2023-04-07T08:29:29;12.40;99.90
14409;DHT22;7289;50.706;4.992;2023-04-07T08:31:58;12.10;99.90
14409;DHT22;7289;50.706;4.992;2023-04-07T08:34:26;11.90;99.90
14409;DHT22;7289;50.706;4.992;2023-04-07T08:36:55;11.80;99.90
14409;DHT22;7289;50.706;4.992;2023-04-07T08:39:23;11.80;99.90
14409;DHT22;7289;50.706;4.992;2023-04-07T08:41:54;11.80;99.90
14409;DHT22;7289;50.706;4.992;2023-04-07T08:44:24;12.10;99.90
14409;DHT22;7289;50.706;4.992;2023-04-07T08:46:57;12.00;99.90
14409;DHT22;7289;50.706;4.992;2023-04-07T08:49:27;12.20;99.90
14409;DHT22;7289;50.706;4.992;2023-04-07T08:51:58;12.60;99.90
14409;DHT22;7289;50.706;4.992;2023-04-07T08:54:28;13.20;99.90
14409;DHT22;7289;50.706;4.992;2023-04-07T08:56:59;13.60;99.90
14409;DHT22;7289;50.706;4.992;2023-04-07T08:59:30;13.80;99.90
14409;DHT22;7289;50.706;4.992;2023-04-07T09:02:01;13.70;99.90
14409;DHT22;7289;50.706;4.992;2023-04-07T09:04:29;13.70;99.90
14409;DHT22;7289;50.706;4.992;2023-04-07T09:06:59;13.70;99.90
14409;DHT22;7289;50.706;4.992;2023-04-07T09:09:28;13.30;99.90
14409;DHT22;7289;50.706;4.992;2023-04-07T09:11:56;13.30;99.90
14409;DHT22;7289;50.706;4.992;2023-04-07T09:14:25;13.10;99.90
14409;DHT22;7289;50.706;4.992;2023-04-07T09:16:53;12.00;99.90
14409;DHT22;7289;50.706;4.992;2023-04-07T09:19:26;12.10;99.90
14409;DHT22;7289;50.706;4.992;2023-04-07T09:21:56;11.80;99.90
14409;DHT22;7289;50.706;4.992;2023-04-07T09:24:26;12.10;99.90
14409;DHT22;7289;50.706;4.992;2023-04-07T09:27:08;12.30;99.90
14409;DHT22;7289;50.706;4.992;2023-04-07T09:29:37;12.80;99.90
14409;DHT22;7289;50.706;4.992;2023-04-07T09:32:06;12.90;99.90
14409;DHT22;7289;50.706;4.992;2023-04-07T09:34:36;12.30;99.90
14409;DHT22;7289;50.706;4.992;2023-04-07T09:37:07;12.10;99.90
14409;DHT22;7289;50.706;4.992;2023-04-07T09:39:48;11.90;99.90
14409;DHT22;7289;50.706;4.992;2023-04-07T09:42:18;11.70;99.90
14409;DHT22;7289;50.706;4.992;2023-04-07T09:44:46;11.80;99.90
14409;DHT22;7289;50.706;4.992;2023-04-07T09:47:14;11.70;99.90
14409;DHT22;7289;50.706;4.992;2023-04-07T09:49:52;11.80;99.90
14409;DHT22;7289;50.706;4.992;2023-04-07T09:52:24;11.80;99.90
14409;DHT22;7289;50.706;4.992;2023-04-07T09:54:53;11.80;99.90
14409;DHT22;7289;50.706;4.992;2023-04-07T09:57:22;12.20;99.90
14409;DHT22;7289;50.706;4.992;2023-04-07T09:59:52;12.20;99.90
14409;DHT22;7289;50.706;4.992;2023-04-07T10:02:22;12.30;99.90
14409;DHT22;7289;50.706;4.992;2023-04-07T10:04:54;12.50;99.90
14409;DHT22;7289;50.706;4.992;2023-04-07T10:07:22;12.30;99.90
14409;DHT22;7289;50.706;4.992;2023-04-07T10:09:51;12.20;99.90
14409;DHT22;7289;50.706;4.992;2023-04-07T10:12:19;12.20;99.90
14409;DHT22;7289;50.706;4.992;2023-04-07T10:14:47;11.90;99.90
14409;DHT22;7289;50.706;4.992;2023-04-07T10:17:17;11.60;99.90
14409;DHT22;7289;50.706;4.992;2023-04-07T10:19:48;11.70;99.90
14409;DHT22;7289;50.706;4.992;2023-04-07T10:22:19;11.40;99.90
14409;DHT22;7289;50.706;4.992;2023-04-07T10:24:52;11.10;99.90
14409;DHT22;7289;50.706;4.992;2023-04-07T10:27:28;10.90;99.90
14409;DHT22;7289;50.706;4.992;2023-04-07T10:29:58;10.90;99.90
14409;DHT22;7289;50.706;4.992;2023-04-07T10:32:27;10.90;99.90
14409;DHT22;7289;50.706;4.992;2023-04-07T10:34:57;11.10;99.90
14409;DHT22;7289;50.706;4.992;2023-04-07T10:37:28;11.30;99.90
14409;DHT22;7289;50.706;4.992;2023-04-07T10:43:01;11.70;99.90
14409;DHT22;7289;50.706;4.992;2023-04-07T10:45:51;11.90;99.90
14409;DHT22;7289;50.706;4.992;2023-04-07T10:48:22;12.00;99.90
14409;DHT22;7289;50.706;4.992;2023-04-07T10:51:13;12.20;99.90
14409;DHT22;7289;50.706;4.992;2023-04-07T10:57:11;13.20;99.90
14409;DHT22;7289;50.706;4.992;2023-04-07T10:59:42;13.30;99.90
14409;DHT22;7289;50.706;4.992;2023-04-07T11:02:33;13.40;99.90
14409;DHT22;7289;50.706;4.992;2023-04-07T11:05:02;13.40;99.90
14409;DHT22;7289;50.706;4.992;2023-04-07T11:07:51;13.50;99.90
14409;DHT22;7289;50.706;4.992;2023-04-07T11:10:21;13.60;99.90
14409;DHT22;7289;50.706;4.992;2023-04-07T11:13:01;13.60;99.90
14409;DHT22;7289;50.706;4.992;2023-04-07T11:15:30;14.00;99.90
14409;DHT22;7289;50.706;4.992;2023-04-07T11:18:08;14.20;99.90
14409;DHT22;7289;50.706;4.992;2023-04-07T11:20:44;14.40;99.90
14409;DHT22;7289;50.706;4.992;2023-04-07T11:23:14;14.50;99.90
14409;DHT22;7289;50.706;4.992;2023-04-07T11:25:44;14.30;99.90
14409;DHT22;7289;50.706;4.992;2023-04-07T11:28:13;14.20;99.90
14409;DHT22;7289;50.706;4.992;2023-04-07T11:30:48;14.00;99.90
14409;DHT22;7289;50.706;4.992;2023-04-07T11:33:19;14.10;99.90
14409;DHT22;7289;50.706;4.992;2023-04-07T11:35:49;14.40;99.90
14409;DHT22;7289;50.706;4.992;2023-04-07T11:38:18;14.40;99.90
14409;DHT22;7289;50.706;4.992;2023-04-07T11:40:47;14.80;99.90
14409;DHT22;7289;50.706;4.992;2023-04-07T11:43:18;14.50;99.90
14409;DHT22;7289;50.706;4.992;2023-04-07T11:46:03;14.70;99.90
14409;DHT22;7289;50.706;4.992;2023-04-07T11:48:33;14.30;99.90
14409;DHT22;7289;50.706;4.992;2023-04-07T11:51:02;14.70;99.90
14409;DHT22;7289;50.706;4.992;2023-04-07T11:53:31;14.90;99.80
14409;DHT22;7289;50.706;4.992;2023-04-07T11:56:05;14.70;99.10
14409;DHT22;7289;50.706;4.992;2023-04-07T11:58:37;14.00;99.90
14409;DHT22;7289;50.706;4.992;2023-04-07T12:01:06;13.70;99.90
14409;DHT22;7289;50.706;4.992;2023-04-07T12:03:36;13.40;99.90
14409;DHT22;7289;50.706;4.992;2023-04-07T12:06:04;13.40;99.90
14409;DHT22;7289;50.706;4.992;2023-04-07T12:08:40;13.40;99.90
14409;DHT22;7289;50.706;4.992;2023-04-07T12:11:09;13.30;99.90
14409;DHT22;7289;50.706;4.992;2023-04-07T12:13:39;13.40;99.90
14409;DHT22;7289;50.706;4.992;2023-04-07T12:16:08;13.20;99.90
14409;DHT22;7289;50.706;4.992;2023-04-07T12:18:36;13.20;99.90
14409;DHT22;7289;50.706;4.992;2023-04-07T12:21:04;13.10;99.90
14409;DHT22;7289;50.706;4.992;2023-04-07T12:23:33;12.80;99.90
14409;DHT22;7289;50.706;4.992;2023-04-07T12:26:01;12.70;99.90
14409;DHT22;7289;50.706;4.992;2023-04-07T12:28:29;12.70;99.90
14409;DHT22;7289;50.706;4.992;2023-04-07T12:30:59;12.80;99.90
14409;DHT22;7289;50.706;4.992;2023-04-07T12:33:27;12.80;99.90
14409;DHT22;7289;50.706;4.992;2023-04-07T12:35:56;13.00;99.90
14409;DHT22;7289;50.706;4.992;2023-04-07T12:38:24;13.00;99.90
14409;DHT22;7289;50.706;4.992;2023-04-07T12:40:52;12.70;99.90
14409;DHT22;7289;50.706;4.992;2023-04-07T12:43:21;13.00;99.90
14409;DHT22;7289;50.706;4.992;2023-04-07T12:45:49;13.00;99.90
14409;DHT22;7289;50.706;4.992;2023-04-07T12:48:19;13.20;99.90
14409;DHT22;7289;50.706;4.992;2023-04-07T12:50:47;13.40;99.90
14409;DHT22;7289;50.706;4.992;2023-04-07T12:53:15;13.40;99.90
14409;DHT22;7289;50.706;4.992;2023-04-07T12:55:43;13.50;99.90
14409;DHT22;7289;50.706;4.992;2023-04-07T12:58:14;13.60;99.90
14409;DHT22;7289;50.706;4.992;2023-04-07T13:00:43;14.00;99.90
14409;DHT22;7289;50.706;4.992;2023-04-07T13:03:12;14.00;99.90
14409;DHT22;7289;50.706;4.992;2023-04-07T13:05:42;13.70;99.90
14409;DHT22;7289;50.706;4.992;2023-04-07T13:08:10;13.20;99.90
14409;DHT22;7289;50.706;4.992;2023-04-07T13:10:39;13.40;99.90
14409;DHT22;7289;50.706;4.992;2023-04-07T13:13:07;13.60;99.90
14409;DHT22;7289;50.706;4.992;2023-04-07T13:15:35;13.80;99.90
14409;DHT22;7289;50.706;4.992;2023-04-07T13:18:03;13.80;99.90
14409;DHT22;7289;50.706;4.992;2023-04-07T13:20:32;13.90;99.90
14409;DHT22;7289;50.706;4.992;2023-04-07T13:23:02;13.90;99.90
14409;DHT22;7289;50.706;4.992;2023-04-07T13:25:35;13.90;99.90
14409;DHT22;7289;50.706;4.992;2023-04-07T13:28:04;14.00;99.90
14409;DHT22;7289;50.706;4.992;2023-04-07T13:30:32;13.70;99.90
14409;DHT22;7289;50.706;4.992;2023-04-07T13:33:01;13.70;99.90
14409;DHT22;7289;50.706;4.992;2023-04-07T13:35:29;13.90;99.90
14409;DHT22;7289;50.706;4.992;2023-04-07T13:38:03;14.20;99.90
14409;DHT22;7289;50.706;4.992;2023-04-07T13:40:31;14.00;99.90
14409;DHT22;7289;50.706;4.992;2023-04-07T13:43:00;13.90;99.90
14409;DHT22;7289;50.706;4.992;2023-04-07T13:45:28;13.80;99.90
14409;DHT22;7289;50.706;4.992;2023-04-07T13:47:56;13.70;99.90
14409;DHT22;7289;50.706;4.992;2023-04-07T13:50:25;13.70;99.90
14409;DHT22;7289;50.706;4.992;2023-04-07T13:52:53;13.60;99.90
14409;DHT22;7289;50.706;4.992;2023-04-07T13:55:23;13.60;99.90
14409;DHT22;7289;50.706;4.992;2023-04-07T13:57:51;13.50;99.90
14409;DHT22;7289;50.706;4.992;2023-04-07T14:00:20;13.80;99.90
14409;DHT22;7289;50.706;4.992;2023-04-07T14:02:48;14.00;99.90
14409;DHT22;7289;50.706;4.992;2023-04-07T14:05:16;14.40;99.90
14409;DHT22;7289;50.706;4.992;2023-04-07T14:07:45;14.60;99.90
14409;DHT22;7289;50.706;4.992;2023-04-07T14:10:14;14.90;99.90
14409;DHT22;7289;50.706;4.992;2023-04-07T14:12:43;15.00;99.90
14409;DHT22;7289;50.706;4.992;2023-04-07T14:15:13;15.20;99.90
14409;DHT22;7289;50.706;4.992;2023-04-07T14:17:44;15.00;99.90
14409;DHT22;7289;50.706;4.992;2023-04-07T14:20:12;15.10;99.70
14409;DHT22;7289;50.706;4.992;2023-04-07T14:22:40;14.70;99.90
14409;DHT22;7289;50.706;4.992;2023-04-07T14:25:10;14.30;99.90
14409;DHT22;7289;50.706;4.992;2023-04-07T14:27:38;14.30;99.90
14409;DHT22;7289;50.706;4.992;2023-04-07T14:30:09;14.20;99.90
14409;DHT22;7289;50.706;4.992;2023-04-07T14:32:37;14.20;99.90
14409;DHT22;7289;50.706;4.992;2023-04-07T14:35:06;14.70;99.90
14409;DHT22;7289;50.706;4.992;2023-04-07T14:37:35;15.20;99.90
14409;DHT22;7289;50.706;4.992;2023-04-07T14:40:04;15.40;99.90
14409;DHT22;7289;50.706;4.992;2023-04-07T14:42:33;15.60;99.20
14409;DHT22;7289;50.706;4.992;2023-04-07T14:45:03;15.20;99.90
14409;DHT22;7289;50.706;4.992;2023-04-07T14:47:32;14.80;99.90
14409;DHT22;7289;50.706;4.992;2023-04-07T14:50:01;14.90;99.90
14409;DHT22;7289;50.706;4.992;2023-04-07T14:52:29;14.60;99.90
14409;DHT22;7289;50.706;4.992;2023-04-07T14:54:58;14.20;99.90
14409;DHT22;7289;50.706;4.992;2023-04-07T14:57:26;14.00;99.90
14409;DHT22;7289;50.706;4.992;2023-04-07T14:59:54;13.60;99.90
14409;DHT22;7289;50.706;4.992;2023-04-07T15:02:23;13.30;99.90
14409;DHT22;7289;50.706;4.992;2023-04-07T15:04:52;13.20;99.90
14409;DHT22;7289;50.706;4.992;2023-04-07T15:07:21;12.80;99.90
14409;DHT22;7289;50.706;4.992;2023-04-07T15:09:49;12.40;99.90
14409;DHT22;7289;50.706;4.992;2023-04-07T15:12:18;12.30;99.90
14409;DHT22;7289;50.706;4.992;2023-04-07T15:14:50;11.90;99.90
14409;DHT22;7289;50.706;4.992;2023-04-07T15:17:19;11.80;99.90
14409;DHT22;7289;50.706;4.992;2023-04-07T15:20:00;11.80;99.90
14409;DHT22;7289;50.706;4.992;2023-04-07T15:22:28;11.70;99.90
14409;DHT22;7289;50.706;4.992;2023-04-07T15:24:57;11.70;99.90
14409;DHT22;7289;50.706;4.992;2023-04-07T15:27:25;11.90;99.90
14409;DHT22;7289;50.706;4.992;2023-04-07T15:29:54;11.80;99.90
14409;DHT22;7289;50.706;4.992;2023-04-07T15:32:22;11.80;99.90
14409;DHT22;7289;50.706;4.992;2023-04-07T15:34:50;11.80;99.90
14409;DHT22;7289;50.706;4.992;2023-04-07T15:37:20;12.00;99.90
14409;DHT22;7289;50.706;4.992;2023-04-07T15:39:49;12.10;99.90
14409;DHT22;7289;50.706;4.992;2023-04-07T15:42:18;12.20;99.90
14409;DHT22;7289;50.706;4.992;2023-04-07T15:44:46;12.30;99.90
14409;DHT22;7289;50.706;4.992;2023-04-07T15:47:14;12.40;99.90
14409;DHT22;7289;50.706;4.992;2023-04-07T15:49:43;12.30;99.90
14409;DHT22;7289;50.706;4.992;2023-04-07T15:52:12;12.10;99.90
14409;DHT22;7289;50.706;4.992;2023-04-07T15:54:42;11.90;99.90
14409;DHT22;7289;50.706;4.992;2023-04-07T15:57:10;11.90;99.90
14409;DHT22;7289;50.706;4.992;2023-04-07T15:59:39;12.00;99.90
14409;DHT22;7289;50.706;4.992;2023-04-07T16:02:07;12.00;99.90
14409;DHT22;7289;50.706;4.992;2023-04-07T16:04:38;11.90;99.90
14409;DHT22;7289;50.706;4.992;2023-04-07T16:07:06;11.90;99.90
14409;DHT22;7289;50.706;4.992;2023-04-07T16:09:35;11.90;99.90
14409;DHT22;7289;50.706;4.992;2023-04-07T16:12:04;12.10;99.90
14409;DHT22;7289;50.706;4.992;2023-04-07T16:14:33;12.30;99.90
14409;DHT22;7289;50.706;4.992;2023-04-07T16:17:02;12.40;99.90
14409;DHT22;7289;50.706;4.992;2023-04-07T16:19:30;12.30;99.90